Fairwood, Washington
Current Conditions -  °F | °C
As of 2:53 AM on Thursday 18 Dec 2014 (Local Time) from KRNT Reporting Station
Haze Haze  
Wind Chill: 45°   Ceiling: 600
Heat Index: 45°   Visibility: 4mi
Dew Point: 44°   Wind: 3mph
Humidity: 97%   Direction: 110°ESE
Pressure: 29.96"   Gusts: NA
Location:  47.4414°N, 122.121°W
Report Text: KRNT 181053Z AUTO 11003KT 4SM BR OVC006 07/07 A2996 RMK AO2 RAE30 SLP149 P0001 T00720067
Loading
Personal Weather Stations






























Interactive Weather Map New forecast layout! Learn more

10-Day Weather Forecast

Advertisements
Track Severe Weather on mobile